Time;durP1;ratioP1;P1;durP2;ratioP2;P2;SDS_P1;SDS_P2;PMS_P1;PMS_P2;Temp;Humidity;BMP_temperature;BMP_pressure;BME280_temperature;BME280_humidity;BME280_pressure;Samples;Min_cycle;Max_cycle;Signal;HPM_P1;HPM_P2
2022/05/02 00:00:21;;;;;;;6.65;3.10;;;;;;;;;;4958193;28;20062;-58
2022/05/02 00:02:48;;;;;;;5.07;2.60;;;;;;;;;;4979106;28;20050;-58
2022/05/02 00:05:14;;;;;;;6.70;2.85;;;;;;;;;;4990797;28;20141;-58
2022/05/02 00:07:41;;;;;;;5.65;2.90;;;;;;;;;;4968889;28;20054;-58
2022/05/02 00:10:08;;;;;;;5.43;2.80;;;;;;;;;;4991816;28;20091;-58
2022/05/02 00:12:35;;;;;;;6.88;2.85;;;;;;;;;;4960322;28;20049;-58
2022/05/02 00:15:03;;;;;;;4.82;2.60;;;;;;;;;;4973335;28;20133;-58
2022/05/02 00:20:14;;;;;;;8.20;3.60;;;;;;;;;;4970428;28;20054;-58
2022/05/02 00:22:41;;;;;;;7.82;3.25;;;;;;;;;;4970816;28;20057;-59
2022/05/02 00:25:08;;;;;;;6.47;2.88;;;;;;;;;;4975170;28;20054;-58
2022/05/02 00:27:35;;;;;;;7.88;3.70;;;;;;;;;;4967777;28;20051;-58
2022/05/02 00:30:03;;;;;;;7.10;3.15;;;;;;;;;;4990236;28;20116;-58
2022/05/02 00:32:30;;;;;;;6.18;3.15;;;;;;;;;;4989704;28;20042;-58
2022/05/02 00:34:56;;;;;;;8.35;3.47;;;;;;;;;;4974281;28;20074;-58
2022/05/02 00:37:23;;;;;;;7.03;3.63;;;;;;;;;;4980963;28;20054;-58
2022/05/02 00:39:49;;;;;;;7.18;3.42;;;;;;;;;;4983928;28;20050;-57
2022/05/02 00:42:20;;;;;;;7.03;3.08;;;;;;;;;;4989468;28;20054;-58
2022/05/02 00:44:46;;;;;;;7.28;3.17;;;;;;;;;;4964474;28;20046;-59
2022/05/02 00:47:15;;;;;;;7.75;3.42;;;;;;;;;;4973448;28;20054;-58
2022/05/02 00:49:42;;;;;;;6.60;3.13;;;;;;;;;;4967372;28;20058;-58
2022/05/02 00:52:10;;;;;;;7.55;3.05;;;;;;;;;;4973137;28;20058;-58
2022/05/02 00:54:38;;;;;;;5.85;2.92;;;;;;;;;;4985591;28;20054;-58
2022/05/02 00:57:06;;;;;;;6.68;3.50;;;;;;;;;;4992124;28;20058;-58
2022/05/02 00:59:33;;;;;;;7.57;3.35;;;;;;;;;;4979834;28;20054;-58
2022/05/02 01:02:00;;;;;;;5.80;2.90;;;;;;;;;;4956622;28;20075;-58
2022/05/02 01:04:28;;;;;;;5.70;3.08;;;;;;;;;;4970942;28;20058;-58
2022/05/02 01:07:09;;;;;;;7.78;2.72;;;;;;;;;;4973054;28;20109;-58
2022/05/02 01:09:38;;;;;;;6.50;3.13;;;;;;;;;;4963347;28;20051;-58
2022/05/02 01:12:06;;;;;;;5.80;3.00;;;;;;;;;;4972695;28;20046;-58
2022/05/02 01:14:33;;;;;;;9.57;3.15;;;;;;;;;;4966918;28;20144;-58
2022/05/02 01:17:00;;;;;;;5.82;2.92;;;;;;;;;;4973087;28;20046;-58
2022/05/02 01:19:28;;;;;;;7.97;3.70;;;;;;;;;;4966545;28;20054;-58
2022/05/02 01:21:56;;;;;;;6.10;2.85;;;;;;;;;;4963653;28;20105;-58
2022/05/02 01:24:32;;;;;;;6.72;2.97;;;;;;;;;;4953290;28;20109;-58
2022/05/02 01:26:59;;;;;;;7.85;2.85;;;;;;;;;;4962963;28;20132;-58
2022/05/02 01:29:25;;;;;;;6.72;3.22;;;;;;;;;;4963313;28;20153;-58
2022/05/02 01:31:54;;;;;;;7.30;3.30;;;;;;;;;;4965633;28;20116;-58
2022/05/02 01:34:21;;;;;;;7.93;3.35;;;;;;;;;;4964736;28;20050;-58
2022/05/02 01:36:48;;;;;;;6.75;3.40;;;;;;;;;;4954398;28;20062;-58
2022/05/02 01:39:18;;;;;;;9.05;3.38;;;;;;;;;;4936595;29;20051;-57
2022/05/02 01:41:46;;;;;;;6.85;2.97;;;;;;;;;;4943302;28;20058;-58
2022/05/02 01:44:12;;;;;;;7.38;3.33;;;;;;;;;;4962675;28;20058;-58
2022/05/02 01:46:39;;;;;;;7.07;3.08;;;;;;;;;;4948915;28;20170;-58
2022/05/02 01:49:06;;;;;;;5.88;3.08;;;;;;;;;;4965110;28;20141;-58
2022/05/02 01:51:34;;;;;;;6.75;2.85;;;;;;;;;;4963122;28;20054;-59
2022/05/02 01:54:00;;;;;;;6.40;3.40;;;;;;;;;;4974123;28;20054;-59
2022/05/02 01:56:28;;;;;;;7.90;3.20;;;;;;;;;;4967953;28;20555;-58
2022/05/02 01:58:55;;;;;;;6.60;2.93;;;;;;;;;;4989008;28;20054;-59
2022/05/02 02:01:22;;;;;;;7.13;3.25;;;;;;;;;;4964384;28;20042;-58
2022/05/02 02:03:49;;;;;;;6.78;2.97;;;;;;;;;;4972342;28;20171;-58
2022/05/02 02:06:14;;;;;;;6.57;3.00;;;;;;;;;;4965366;28;20078;-58
2022/05/02 02:08:41;;;;;;;6.38;2.78;;;;;;;;;;4985314;28;20059;-58
2022/05/02 02:11:09;;;;;;;7.55;3.22;;;;;;;;;;4956395;28;20051;-59
2022/05/02 02:13:37;;;;;;;6.40;2.88;;;;;;;;;;4937342;28;20051;-58
2022/05/02 02:16:06;;;;;;;5.93;2.70;;;;;;;;;;4951883;28;20050;-58
2022/05/02 02:18:33;;;;;;;8.13;3.10;;;;;;;;;;4963928;28;20051;-57
2022/05/02 02:21:00;;;;;;;6.88;3.33;;;;;;;;;;4971505;28;20125;-58
2022/05/02 02:23:27;;;;;;;6.18;3.00;;;;;;;;;;4965605;28;20051;-58
2022/05/02 02:25:54;;;;;;;7.47;3.05;;;;;;;;;;4954054;28;20054;-58
2022/05/02 02:28:21;;;;;;;6.32;2.83;;;;;;;;;;4967692;28;20062;-58
2022/05/02 02:30:50;;;;;;;7.60;3.20;;;;;;;;;;4972719;28;20047;-58
2022/05/02 02:33:16;;;;;;;7.10;3.38;;;;;;;;;;4964445;28;20065;-58
2022/05/02 02:35:43;;;;;;;6.03;3.20;;;;;;;;;;4971304;28;20042;-57
2022/05/02 02:38:12;;;;;;;7.05;3.22;;;;;;;;;;4964659;28;20058;-58
2022/05/02 02:40:39;;;;;;;7.47;3.28;;;;;;;;;;4970968;28;20049;-57
2022/05/02 02:43:06;;;;;;;8.50;3.40;;;;;;;;;;4965687;28;20048;-57
2022/05/02 02:45:32;;;;;;;7.85;3.10;;;;;;;;;;4970850;28;20046;-58
2022/05/02 02:48:00;;;;;;;8.07;3.65;;;;;;;;;;4955391;28;20090;-58
2022/05/02 02:50:27;;;;;;;6.70;3.27;;;;;;;;;;4970780;28;20064;-58
2022/05/02 02:52:54;;;;;;;6.47;3.38;;;;;;;;;;4954124;28;20306;-58
2022/05/02 02:55:21;;;;;;;6.57;3.17;;;;;;;;;;4969549;28;20062;-57
2022/05/02 02:57:48;;;;;;;10.10;3.80;;;;;;;;;;4970887;28;20065;-58
2022/05/02 03:00:15;;;;;;;8.20;3.22;;;;;;;;;;4964864;28;20062;-58
2022/05/02 03:02:43;;;;;;;10.65;3.22;;;;;;;;;;4968539;28;20069;-58
2022/05/02 03:07:56;;;;;;;5.97;2.88;;;;;;;;;;4970560;28;20062;-58
2022/05/02 03:10:23;;;;;;;7.57;3.35;;;;;;;;;;4957687;28;20054;-58
2022/05/02 03:12:49;;;;;;;7.10;3.38;;;;;;;;;;4970401;28;20053;-58
2022/05/02 03:15:19;;;;;;;8.25;3.38;;;;;;;;;;4964611;28;20054;-58
2022/05/02 03:17:45;;;;;;;7.78;3.40;;;;;;;;;;4962790;28;20086;-58
2022/05/02 03:20:14;;;;;;;5.93;3.10;;;;;;;;;;4946002;28;20069;-58
2022/05/02 03:22:40;;;;;;;6.55;3.25;;;;;;;;;;4951505;28;20057;-58
2022/05/02 03:25:07;;;;;;;7.97;3.08;;;;;;;;;;4947772;28;20050;-58
2022/05/02 03:27:34;;;;;;;8.02;3.28;;;;;;;;;;4952095;28;20070;-58
2022/05/02 03:30:00;;;;;;;5.43;2.83;;;;;;;;;;4946252;28;20054;-58
2022/05/02 03:32:28;;;;;;;7.13;3.10;;;;;;;;;;4941971;29;20055;-58
2022/05/02 03:34:55;;;;;;;5.53;2.87;;;;;;;;;;4929967;28;20121;-59
2022/05/02 03:37:23;;;;;;;7.13;3.22;;;;;;;;;;4951944;28;20302;-59
2022/05/02 03:39:49;;;;;;;7.63;2.70;;;;;;;;;;4962446;28;20142;-58
2022/05/02 03:42:16;;;;;;;6.13;3.10;;;;;;;;;;4951430;28;20061;-59
2022/05/02 03:44:43;;;;;;;6.93;3.45;;;;;;;;;;4934940;28;20059;-58
2022/05/02 03:47:09;;;;;;;7.82;3.10;;;;;;;;;;4951114;28;20050;-59
2022/05/02 03:49:36;;;;;;;7.28;3.28;;;;;;;;;;4951825;28;20059;-59
2022/05/02 03:52:04;;;;;;;6.32;2.95;;;;;;;;;;4958198;28;20061;-58
2022/05/02 03:54:33;;;;;;;8.00;3.95;;;;;;;;;;4959019;28;20054;-58
2022/05/02 03:56:59;;;;;;;6.70;3.10;;;;;;;;;;4959402;28;20047;-58
2022/05/02 03:59:26;;;;;;;8.95;3.30;;;;;;;;;;4960076;28;20054;-58
2022/05/02 04:01:53;;;;;;;6.53;2.65;;;;;;;;;;4944920;28;20503;-58
2022/05/02 04:04:19;;;;;;;6.43;2.80;;;;;;;;;;4965259;28;20050;-58
2022/05/02 04:06:47;;;;;;;8.23;3.53;;;;;;;;;;4956315;28;20058;-58
2022/05/02 04:09:14;;;;;;;7.47;3.10;;;;;;;;;;4966987;28;20128;-58
2022/05/02 04:11:44;;;;;;;6.15;3.20;;;;;;;;;;4959958;28;20050;-58
2022/05/02 04:14:10;;;;;;;6.30;2.88;;;;;;;;;;4970975;28;20050;-58
2022/05/02 04:16:37;;;;;;;7.20;3.13;;;;;;;;;;4963483;28;20108;-58
2022/05/02 04:19:04;;;;;;;7.03;2.92;;;;;;;;;;4970281;28;20058;-58
2022/05/02 04:21:31;;;;;;;8.20;3.08;;;;;;;;;;4969062;28;20070;-58
2022/05/02 04:23:58;;;;;;;7.80;3.47;;;;;;;;;;4969796;28;20054;-58
2022/05/02 04:26:24;;;;;;;8.88;3.45;;;;;;;;;;4969734;28;20050;-58
2022/05/02 04:28:52;;;;;;;6.82;3.15;;;;;;;;;;4949809;28;20110;-58
2022/05/02 04:31:19;;;;;;;7.10;2.93;;;;;;;;;;4955206;28;20051;-58
2022/05/02 04:33:46;;;;;;;8.13;3.60;;;;;;;;;;4950130;28;20326;-58
2022/05/02 04:36:13;;;;;;;8.38;3.30;;;;;;;;;;4982875;28;20076;-58
2022/05/02 04:38:39;;;;;;;6.43;2.67;;;;;;;;;;4962781;28;20065;-58
2022/05/02 04:41:06;;;;;;;7.63;3.53;;;;;;;;;;4960862;28;20050;-58
2022/05/02 04:43:33;;;;;;;6.38;3.08;;;;;;;;;;4961491;28;20054;-57
2022/05/02 04:46:01;;;;;;;7.95;3.67;;;;;;;;;;4973796;28;20086;-58
2022/05/02 04:48:27;;;;;;;7.80;3.10;;;;;;;;;;4966679;28;20054;-58
2022/05/02 04:50:54;;;;;;;9.63;4.00;;;;;;;;;;4973234;28;20321;-58
2022/05/02 04:53:21;;;;;;;8.15;3.70;;;;;;;;;;4983786;28;20054;-58
2022/05/02 04:55:48;;;;;;;6.85;3.30;;;;;;;;;;4972286;28;20049;-58
2022/05/02 04:58:15;;;;;;;6.80;3.33;;;;;;;;;;4967089;28;20117;-58
2022/05/02 05:00:42;;;;;;;6.45;2.97;;;;;;;;;;4978563;28;20051;-58
2022/05/02 05:03:10;;;;;;;6.63;3.38;;;;;;;;;;4970370;28;20042;-58
2022/05/02 05:05:37;;;;;;;7.65;3.47;;;;;;;;;;4976332;28;20055;-58
2022/05/02 05:08:03;;;;;;;10.73;3.92;;;;;;;;;;4975377;28;20055;-58
2022/05/02 05:10:30;;;;;;;14.52;5.68;;;;;;;;;;4945475;28;20166;-58
2022/05/02 05:13:04;;;;;;;12.13;4.55;;;;;;;;;;4951506;28;20137;-58
2022/05/02 05:18:32;;;;;;;9.15;4.60;;;;;;;;;;4955010;28;20065;-57
2022/05/02 05:21:03;;;;;;;10.23;4.65;;;;;;;;;;4970059;28;20066;-58
2022/05/02 05:23:36;;;;;;;8.00;3.88;;;;;;;;;;4970651;28;20070;-58
2022/05/02 05:26:12;;;;;;;7.32;3.38;;;;;;;;;;4965724;28;20042;-58
2022/05/02 05:29:03;;;;;;;9.07;4.30;;;;;;;;;;4973567;28;20105;-58
2022/05/02 05:31:42;;;;;;;8.30;4.03;;;;;;;;;;4974355;28;20094;-57
2022/05/02 05:34:25;;;;;;;10.45;3.80;;;;;;;;;;4969946;28;20057;-59
2022/05/02 05:37:05;;;;;;;10.70;4.18;;;;;;;;;;4970223;28;20058;-58
2022/05/02 05:39:36;;;;;;;15.60;5.28;;;;;;;;;;4964804;28;20057;-58
2022/05/02 05:42:09;;;;;;;9.48;4.40;;;;;;;;;;4984945;28;20062;-58
2022/05/02 05:44:42;;;;;;;9.88;4.38;;;;;;;;;;4968580;28;20054;-58
2022/05/02 05:47:15;;;;;;;9.45;4.25;;;;;;;;;;4971873;28;20054;-57
2022/05/02 05:49:49;;;;;;;7.97;3.58;;;;;;;;;;4972299;28;20139;-58
2022/05/02 05:52:21;;;;;;;11.27;5.30;;;;;;;;;;4964541;28;20054;-58
2022/05/02 05:54:56;;;;;;;8.98;4.60;;;;;;;;;;4952562;28;20113;-58
2022/05/02 05:57:28;;;;;;;11.75;3.78;;;;;;;;;;4966597;28;20054;-57
2022/05/02 06:00:12;;;;;;;9.98;3.45;;;;;;;;;;4953408;28;20059;-58
2022/05/02 06:02:49;;;;;;;12.90;6.10;;;;;;;;;;4967429;28;20058;-58
2022/05/02 06:05:17;;;;;;;16.55;6.82;;;;;;;;;;4952373;28;20096;-57
2022/05/02 06:07:46;;;;;;;21.95;6.55;;;;;;;;;;4961253;28;20122;-57
2022/05/02 06:10:15;;;;;;;14.55;7.15;;;;;;;;;;4970298;28;20058;-58
2022/05/02 06:12:43;;;;;;;10.75;5.00;;;;;;;;;;4966988;28;20066;-58
2022/05/02 06:20:47;;;;;;;15.38;6.25;;;;;;;;;;4966974;28;20058;-58
2022/05/02 06:23:15;;;;;;;18.13;6.75;;;;;;;;;;4948801;28;20066;-58
2022/05/02 06:25:42;;;;;;;17.23;6.70;;;;;;;;;;4968032;28;20058;-58
2022/05/02 06:28:12;;;;;;;19.58;6.78;;;;;;;;;;4964448;28;20306;-58
2022/05/02 06:30:40;;;;;;;14.43;6.10;;;;;;;;;;4983461;28;20090;-58
2022/05/02 06:33:11;;;;;;;15.93;7.22;;;;;;;;;;4945636;28;20055;-57
2022/05/02 06:35:45;;;;;;;16.95;6.68;;;;;;;;;;4945808;28;20054;-58
2022/05/02 06:38:18;;;;;;;13.07;6.50;;;;;;;;;;4930499;29;20098;-57
2022/05/02 06:40:50;;;;;;;16.80;7.18;;;;;;;;;;4934272;29;20059;-57
2022/05/02 06:43:18;;;;;;;10.25;5.20;;;;;;;;;;4942284;28;20054;-58
2022/05/02 06:45:49;;;;;;;17.92;6.68;;;;;;;;;;4967413;28;20054;-59
2022/05/02 06:48:25;;;;;;;14.73;6.15;;;;;;;;;;4940105;28;20118;-59
2022/05/02 06:50:54;;;;;;;9.73;4.72;;;;;;;;;;4952313;28;20054;-59
2022/05/02 06:53:33;;;;;;;11.63;4.88;;;;;;;;;;4938852;28;20047;-58
2022/05/02 06:56:03;;;;;;;16.83;7.03;;;;;;;;;;4953586;28;20057;-58
2022/05/02 06:58:35;;;;;;;9.93;5.35;;;;;;;;;;4940771;28;20047;-57
2022/05/02 07:01:05;;;;;;;7.70;3.78;;;;;;;;;;4952453;28;20054;-58
2022/05/02 07:04:05;;;;;;;15.18;6.30;;;;;;;;;;4945549;28;20059;-58
2022/05/02 07:06:39;;;;;;;12.85;6.15;;;;;;;;;;4911760;29;20052;-58
2022/05/02 07:09:09;;;;;;;16.15;6.93;;;;;;;;;;4886490;29;20048;-58
2022/05/02 07:11:44;;;;;;;18.52;6.93;;;;;;;;;;4938850;28;20132;-58
2022/05/02 07:14:14;;;;;;;13.32;6.70;;;;;;;;;;4959184;28;20066;-57
2022/05/02 07:16:43;;;;;;;11.60;5.38;;;;;;;;;;4951256;28;20043;-58
2022/05/02 07:19:17;;;;;;;9.77;4.47;;;;;;;;;;4945334;28;20051;-59
2022/05/02 07:21:47;;;;;;;9.82;4.97;;;;;;;;;;4946231;28;20046;-58
2022/05/02 07:24:16;;;;;;;9.55;4.57;;;;;;;;;;4959346;28;20047;-59
2022/05/02 07:26:47;;;;;;;7.72;3.40;;;;;;;;;;4961598;28;20058;-58
2022/05/02 07:29:14;;;;;;;9.52;4.10;;;;;;;;;;4965024;28;20062;-58
2022/05/02 07:31:42;;;;;;;12.10;4.57;;;;;;;;;;4969831;28;20176;-58
2022/05/02 07:34:12;;;;;;;7.03;3.67;;;;;;;;;;4964821;28;20274;-59
2022/05/02 07:36:39;;;;;;;8.20;3.90;;;;;;;;;;4970808;28;20054;-58
2022/05/02 07:39:07;;;;;;;24.05;4.30;;;;;;;;;;4966010;28;20113;-58
2022/05/02 07:41:36;;;;;;;8.23;3.20;;;;;;;;;;4969455;28;20081;-58
2022/05/02 07:44:03;;;;;;;10.43;3.65;;;;;;;;;;4970739;28;20054;-58
2022/05/02 07:46:31;;;;;;;6.28;3.28;;;;;;;;;;4964355;28;20136;-59
2022/05/02 07:48:59;;;;;;;10.82;3.78;;;;;;;;;;4970695;28;20046;-58
2022/05/02 07:51:26;;;;;;;11.43;4.63;;;;;;;;;;4960822;28;20092;-58
2022/05/02 07:53:53;;;;;;;9.05;4.70;;;;;;;;;;4970612;28;20053;-58
2022/05/02 07:56:22;;;;;;;9.90;4.07;;;;;;;;;;4964466;28;20113;-59
2022/05/02 07:58:52;;;;;;;8.52;3.72;;;;;;;;;;4970890;28;20054;-58
2022/05/02 08:01:19;;;;;;;6.50;3.55;;;;;;;;;;4964218;28;20065;-58
2022/05/02 08:03:46;;;;;;;6.68;3.03;;;;;;;;;;4990618;28;20054;-59
2022/05/02 08:06:16;;;;;;;8.32;3.88;;;;;;;;;;4984301;28;20108;-59
2022/05/02 08:08:49;;;;;;;9.02;4.20;;;;;;;;;;4974876;28;20047;-59
2022/05/02 08:11:19;;;;;;;6.53;3.28;;;;;;;;;;4977593;28;20061;-58
2022/05/02 08:13:53;;;;;;;9.60;4.25;;;;;;;;;;4975648;28;20124;-59
2022/05/02 08:16:24;;;;;;;11.30;4.15;;;;;;;;;;4961824;28;20051;-58
2022/05/02 08:19:04;;;;;;;7.57;3.25;;;;;;;;;;4957218;28;20134;-58
2022/05/02 08:21:34;;;;;;;10.50;3.08;;;;;;;;;;4978521;28;20054;-58
2022/05/02 08:27:16;;;;;;;9.07;4.35;;;;;;;;;;4969029;28;20158;-59
2022/05/02 08:29:50;;;;;;;7.07;3.30;;;;;;;;;;4976474;28;20053;-59
2022/05/02 08:32:23;;;;;;;7.05;3.53;;;;;;;;;;4961134;28;20078;-59
2022/05/02 08:34:58;;;;;;;6.45;3.25;;;;;;;;;;4955606;28;20055;-59
2022/05/02 08:37:36;;;;;;;10.43;3.92;;;;;;;;;;4961330;28;20058;-59
2022/05/02 08:40:09;;;;;;;15.93;5.20;;;;;;;;;;4968131;28;20086;-59
2022/05/02 08:42:57;;;;;;;11.05;4.85;;;;;;;;;;4944036;28;20047;-59
2022/05/02 08:45:51;;;;;;;13.43;4.37;;;;;;;;;;4951931;28;20062;-58
2022/05/02 08:48:39;;;;;;;8.35;3.85;;;;;;;;;;4948187;28;20058;-59
2022/05/02 08:51:26;;;;;;;6.85;3.33;;;;;;;;;;4964616;28;20072;-59
2022/05/02 08:54:06;;;;;;;9.43;4.10;;;;;;;;;;4937450;29;20058;-58
2022/05/02 08:56:48;;;;;;;10.48;4.32;;;;;;;;;;4944760;29;20051;-59
2022/05/02 08:59:28;;;;;;;8.43;3.40;;;;;;;;;;4928289;28;20052;-58
2022/05/02 09:02:22;;;;;;;9.80;3.78;;;;;;;;;;4947108;29;20059;-58
2022/05/02 09:05:10;;;;;;;7.43;3.63;;;;;;;;;;4948502;28;20070;-59
2022/05/02 09:08:10;;;;;;;14.45;3.65;;;;;;;;;;4962638;28;20059;-59
2022/05/02 09:10:55;;;;;;;9.05;3.10;;;;;;;;;;4983663;28;20112;-58
2022/05/02 09:13:43;;;;;;;7.25;3.25;;;;;;;;;;4963483;28;20073;-58
2022/05/02 09:16:30;;;;;;;7.50;3.90;;;;;;;;;;4926611;28;20130;-59
2022/05/02 09:19:16;;;;;;;6.63;2.90;;;;;;;;;;4968495;28;20057;-59
2022/05/02 09:22:00;;;;;;;14.55;4.00;;;;;;;;;;4976525;28;20304;-59
2022/05/02 09:24:49;;;;;;;8.85;3.70;;;;;;;;;;4961168;28;20069;-59
2022/05/02 09:27:25;;;;;;;6.20;3.45;;;;;;;;;;4951360;29;20055;-59
2022/05/02 09:30:12;;;;;;;10.57;4.90;;;;;;;;;;4941404;28;20066;-59
2022/05/02 09:32:47;;;;;;;6.53;3.17;;;;;;;;;;4951079;28;20170;-59
2022/05/02 09:35:15;;;;;;;8.15;3.55;;;;;;;;;;4943843;29;20079;-59
2022/05/02 09:37:48;;;;;;;6.68;3.28;;;;;;;;;;4965945;28;20059;-59
2022/05/02 09:40:15;;;;;;;7.78;3.63;;;;;;;;;;4949267;28;20055;-59
2022/05/02 09:42:52;;;;;;;7.60;3.47;;;;;;;;;;4934186;29;20051;-59
2022/05/02 09:51:29;;;;;;;8.20;3.03;;;;;;;;;;4943232;28;20118;-59
2022/05/02 09:54:00;;;;;;;8.05;3.42;;;;;;;;;;4954193;28;20051;-59
2022/05/02 09:56:38;;;;;;;8.45;4.00;;;;;;;;;;4963951;28;20062;-59
2022/05/02 09:59:08;;;;;;;6.60;2.92;;;;;;;;;;4961522;28;20058;-59
2022/05/02 10:01:40;;;;;;;6.60;3.05;;;;;;;;;;4948759;28;20047;-60
2022/05/02 10:04:18;;;;;;;8.00;4.00;;;;;;;;;;4953741;28;20121;-59
2022/05/02 10:06:48;;;;;;;10.63;3.83;;;;;;;;;;4964519;28;20050;-59
2022/05/02 10:09:18;;;;;;;6.80;2.97;;;;;;;;;;4967195;28;20059;-59
2022/05/02 10:11:54;;;;;;;12.20;4.45;;;;;;;;;;4963324;28;20145;-59
2022/05/02 10:14:36;;;;;;;6.72;3.25;;;;;;;;;;4962950;28;20188;-59
2022/05/02 10:17:07;;;;;;;7.35;3.40;;;;;;;;;;4963370;28;20063;-59
2022/05/02 10:19:43;;;;;;;8.23;4.07;;;;;;;;;;4962201;28;20059;-59
2022/05/02 10:22:27;;;;;;;7.38;3.40;;;;;;;;;;4942563;28;20066;-59
2022/05/02 10:25:00;;;;;;;7.50;3.13;;;;;;;;;;4950295;28;20059;-59
2022/05/02 10:27:41;;;;;;;8.07;3.38;;;;;;;;;;4928277;29;20143;-59
2022/05/02 10:30:11;;;;;;;9.32;3.53;;;;;;;;;;4931115;29;20086;-60
2022/05/02 10:32:48;;;;;;;7.57;3.20;;;;;;;;;;4927148;29;20079;-59
2022/05/02 10:35:15;;;;;;;10.52;3.78;;;;;;;;;;4944782;28;20162;-59
2022/05/02 10:37:43;;;;;;;9.77;3.47;;;;;;;;;;4944274;28;20059;-59
2022/05/02 10:40:12;;;;;;;5.88;2.83;;;;;;;;;;4951279;28;20052;-59
2022/05/02 10:42:43;;;;;;;10.68;4.00;;;;;;;;;;4927924;28;20046;-59
2022/05/02 10:45:11;;;;;;;10.93;3.90;;;;;;;;;;4958767;28;20117;-59
2022/05/02 10:47:40;;;;;;;8.00;3.35;;;;;;;;;;4951369;28;20055;-59
2022/05/02 10:50:16;;;;;;;6.80;3.15;;;;;;;;;;4948285;28;20055;-59
2022/05/02 10:52:49;;;;;;;6.80;3.40;;;;;;;;;;4952644;28;20062;-59
2022/05/02 10:55:20;;;;;;;8.20;3.70;;;;;;;;;;4965023;28;20047;-59
2022/05/02 10:57:47;;;;;;;7.45;3.60;;;;;;;;;;4942999;28;20094;-59
2022/05/02 11:00:15;;;;;;;10.40;3.42;;;;;;;;;;4963858;28;20058;-59
2022/05/02 11:03:11;;;;;;;8.05;3.45;;;;;;;;;;4959957;28;20054;-59
2022/05/02 11:05:44;;;;;;;13.35;3.80;;;;;;;;;;4964578;28;20141;-59
2022/05/02 11:08:12;;;;;;;5.75;2.90;;;;;;;;;;4953555;28;20047;-59
2022/05/02 11:10:42;;;;;;;9.63;3.65;;;;;;;;;;4946682;28;20035;-59
2022/05/02 11:13:13;;;;;;;7.20;3.20;;;;;;;;;;4937512;28;20054;-59
2022/05/02 11:15:59;;;;;;;9.07;3.78;;;;;;;;;;4967836;28;20368;-59
2022/05/02 11:21:19;;;;;;;7.50;2.63;;;;;;;;;;4967850;28;20058;-59
2022/05/02 11:23:53;;;;;;;6.13;2.83;;;;;;;;;;4963616;28;20046;-59
2022/05/02 11:26:27;;;;;;;5.70;2.80;;;;;;;;;;4969147;28;20054;-59
2022/05/02 11:29:08;;;;;;;6.50;2.38;;;;;;;;;;4962192;28;20138;-59
2022/05/02 11:31:37;;;;;;;7.85;2.78;;;;;;;;;;4968661;28;20047;-59
2022/05/02 11:34:05;;;;;;;8.15;3.20;;;;;;;;;;4949238;28;20215;-59
2022/05/02 11:36:36;;;;;;;7.32;3.80;;;;;;;;;;4954685;28;20086;-60
2022/05/02 11:39:05;;;;;;;10.80;3.30;;;;;;;;;;4951709;28;20047;-60
2022/05/02 11:41:31;;;;;;;;;;;;;;;;;;4968890;28;20055;-60
2022/05/02 11:44:06;;;;;;;6.07;2.70;;;;;;;;;;4970404;28;19932;-60
2022/05/02 11:46:32;;;;;;;7.85;2.75;;;;;;;;;;4939037;28;20067;-60
2022/05/02 11:49:20;;;;;;;9.23;3.17;;;;;;;;;;4933385;28;20138;-60
2022/05/02 11:51:50;;;;;;;5.40;2.78;;;;;;;;;;4965601;28;20117;-60
2022/05/02 11:54:39;;;;;;;6.28;3.05;;;;;;;;;;4949285;28;20122;-60
2022/05/02 11:57:13;;;;;;;9.70;3.40;;;;;;;;;;4950979;28;20114;-59
2022/05/02 11:59:44;;;;;;;8.52;3.30;;;;;;;;;;4960954;28;20075;-60
2022/05/02 12:02:25;;;;;;;6.32;2.90;;;;;;;;;;4936021;29;20058;-59
2022/05/02 12:04:53;;;;;;;6.10;2.38;;;;;;;;;;4934062;28;20058;-60
2022/05/02 12:07:21;;;;;;;6.05;2.50;;;;;;;;;;4970593;28;20106;-60
2022/05/02 12:09:47;;;;;;;;;;;;;;;;;;4949228;28;20122;-59
2022/05/02 12:12:16;;;;;;;5.15;2.25;;;;;;;;;;4955506;28;19930;-59
2022/05/02 12:15:00;;;;;;;4.43;1.88;;;;;;;;;;4971391;28;20086;-60
2022/05/02 12:17:27;;;;;;;4.15;2.28;;;;;;;;;;4955614;28;20141;-60
2022/05/02 12:19:53;;;;;;;6.82;3.10;;;;;;;;;;4955239;28;20155;-59
2022/05/02 12:22:23;;;;;;;8.63;3.08;;;;;;;;;;4931703;29;20138;-59
2022/05/02 12:24:55;;;;;;;10.32;3.25;;;;;;;;;;4951273;28;20059;-59
2022/05/02 12:27:22;;;;;;;6.68;2.70;;;;;;;;;;4948649;28;20131;-60
2022/05/02 12:29:56;;;;;;;3.80;2.10;;;;;;;;;;4953030;28;20055;-59
2022/05/02 12:32:26;;;;;;;6.63;2.90;;;;;;;;;;4949339;28;20113;-60
2022/05/02 12:34:56;;;;;;;5.00;2.05;;;;;;;;;;4955803;28;20082;-60
2022/05/02 12:37:30;;;;;;;6.65;2.60;;;;;;;;;;4954748;28;20126;-60
2022/05/02 12:40:03;;;;;;;4.85;2.50;;;;;;;;;;4970307;28;20046;-60
2022/05/02 12:42:37;;;;;;;4.43;2.22;;;;;;;;;;4964937;28;20055;-60
2022/05/02 12:45:07;;;;;;;3.88;2.05;;;;;;;;;;4968311;28;20066;-60
2022/05/02 12:47:34;;;;;;;4.78;2.22;;;;;;;;;;4944470;28;20063;-60
2022/05/02 12:50:03;;;;;;;3.63;2.03;;;;;;;;;;4950903;28;20058;-60
2022/05/02 12:52:30;;;;;;;7.50;2.63;;;;;;;;;;4949491;28;20067;-60
2022/05/02 12:55:01;;;;;;;6.18;2.78;;;;;;;;;;4965705;28;20114;-60
2022/05/02 13:00:36;;;;;;;;;;;;;;;;;;4918110;28;20073;-60
2022/05/02 13:03:16;;;;;;;9.57;4.00;;;;;;;;;;4981554;28;19926;-60
2022/05/02 13:05:50;;;;;;;6.35;2.92;;;;;;;;;;4969593;28;20051;-60
2022/05/02 13:08:19;;;;;;;5.90;2.63;;;;;;;;;;4966087;28;20047;-60
2022/05/02 13:10:51;;;;;;;8.07;3.85;;;;;;;;;;4971184;28;20054;-60
2022/05/02 13:13:19;;;;;;;5.72;3.25;;;;;;;;;;4965456;28;20189;-60
2022/05/02 13:15:47;;;;;;;5.65;2.42;;;;;;;;;;4968748;28;20123;-60
2022/05/02 13:18:14;;;;;;;6.23;2.80;;;;;;;;;;4964218;28;20051;-60
2022/05/02 13:20:42;;;;;;;6.43;3.03;;;;;;;;;;4985576;28;20070;-60
2022/05/02 13:23:13;;;;;;;9.07;3.45;;;;;;;;;;4946030;28;20171;-60
2022/05/02 13:25:52;;;;;;;7.18;3.22;;;;;;;;;;4950495;28;20047;-61
2022/05/02 13:28:23;;;;;;;6.60;2.92;;;;;;;;;;4931048;28;20142;-61
2022/05/02 13:30:53;;;;;;;8.05;2.72;;;;;;;;;;4948512;28;20051;-60
2022/05/02 13:33:26;;;;;;;7.00;2.72;;;;;;;;;;4943618;28;20087;-60
2022/05/02 13:35:58;;;;;;;4.20;2.50;;;;;;;;;;4937549;28;20086;-61
2022/05/02 13:38:32;;;;;;;7.78;4.07;;;;;;;;;;4945235;28;20062;-60
2022/05/02 13:41:05;;;;;;;16.10;4.43;;;;;;;;;;4969253;28;20061;-61
2022/05/02 13:43:38;;;;;;;10.23;4.38;;;;;;;;;;4963575;28;20160;-61
2022/05/02 13:46:13;;;;;;;14.15;4.53;;;;;;;;;;4969580;28;20058;-60
2022/05/02 13:48:41;;;;;;;7.07;3.33;;;;;;;;;;4963307;28;20137;-60
2022/05/02 13:51:09;;;;;;;11.90;3.97;;;;;;;;;;4969227;28;20082;-61
2022/05/02 13:53:37;;;;;;;6.25;2.60;;;;;;;;;;4966782;28;20059;-60
2022/05/02 13:56:13;;;;;;;10.80;4.13;;;;;;;;;;4959064;28;20055;-60
2022/05/02 13:58:52;;;;;;;7.38;3.50;;;;;;;;;;4984877;28;20322;-60
2022/05/02 14:01:29;;;;;;;6.90;2.78;;;;;;;;;;4936132;28;20142;-61
2022/05/02 14:04:00;;;;;;;6.78;2.97;;;;;;;;;;4964898;28;20051;-60
2022/05/02 14:06:34;;;;;;;6.50;2.90;;;;;;;;;;4965278;28;20085;-61
2022/05/02 14:09:02;;;;;;;6.38;2.22;;;;;;;;;;4967929;28;20050;-61
2022/05/02 14:11:31;;;;;;;4.60;2.07;;;;;;;;;;4959567;28;20051;-61
2022/05/02 14:14:09;;;;;;;6.10;3.20;;;;;;;;;;4969240;28;20321;-61
2022/05/02 14:16:38;;;;;;;3.80;2.30;;;;;;;;;;4943214;28;20047;-61
2022/05/02 14:19:08;;;;;;;9.02;3.38;;;;;;;;;;4970273;28;20063;-61
2022/05/02 14:21:44;;;;;;;5.60;2.28;;;;;;;;;;4960496;28;20039;-61
2022/05/02 14:24:10;;;;;;;6.45;3.28;;;;;;;;;;4949456;28;20069;-60
2022/05/02 14:26:38;;;;;;;7.05;3.30;;;;;;;;;;4942403;28;20088;-61
2022/05/02 14:29:12;;;;;;;6.70;3.08;;;;;;;;;;4950202;28;20071;-61
2022/05/02 14:31:39;;;;;;;6.93;3.13;;;;;;;;;;4948518;28;20137;-60
2022/05/02 14:34:06;;;;;;;6.15;3.13;;;;;;;;;;4969523;28;20055;-60
2022/05/02 14:36:36;;;;;;;4.15;2.03;;;;;;;;;;4965895;28;20054;-61
2022/05/02 14:39:04;;;;;;;9.15;3.80;;;;;;;;;;4972298;28;20050;-60
2022/05/02 14:41:36;;;;;;;4.68;2.10;;;;;;;;;;4984520;28;20050;-60
2022/05/02 14:44:05;;;;;;;6.53;2.33;;;;;;;;;;4957841;28;20061;-60
2022/05/02 14:46:33;;;;;;;7.75;3.10;;;;;;;;;;4948677;28;20146;-61
2022/05/02 14:49:01;;;;;;;6.13;2.78;;;;;;;;;;4951665;28;20085;-60
2022/05/02 14:51:30;;;;;;;6.60;2.80;;;;;;;;;;4956333;28;20057;-60
2022/05/02 14:53:57;;;;;;;12.35;4.57;;;;;;;;;;4963416;28;20062;-61
2022/05/02 14:56:26;;;;;;;6.35;3.20;;;;;;;;;;4945996;28;20061;-61
2022/05/02 14:58:54;;;;;;;5.07;2.55;;;;;;;;;;4962609;28;20055;-60
2022/05/02 15:01:21;;;;;;;;;;;;;;;;;;4965714;28;20077;-61
2022/05/02 15:03:52;;;;;;;7.80;3.28;;;;;;;;;;4959646;28;19932;-61
2022/05/02 15:06:24;;;;;;;7.30;2.70;;;;;;;;;;4952500;28;20051;-60
2022/05/02 15:09:14;;;;;;;4.90;2.17;;;;;;;;;;4947349;28;20051;-61
2022/05/02 15:11:46;;;;;;;8.50;3.90;;;;;;;;;;4944207;28;20050;-61
2022/05/02 15:14:24;;;;;;;6.55;2.80;;;;;;;;;;4941816;28;20078;-61
2022/05/02 15:16:56;;;;;;;6.25;2.63;;;;;;;;;;4948215;28;20054;-61
2022/05/02 15:19:36;;;;;;;11.95;3.20;;;;;;;;;;4945505;28;20050;-61
2022/05/02 15:22:15;;;;;;;5.70;2.42;;;;;;;;;;4962784;28;20054;-61
2022/05/02 15:24:51;;;;;;;7.78;3.58;;;;;;;;;;4966363;28;20065;-62
2022/05/02 15:38:54;;;;;;;4.05;2.00;;;;;;;;;;4951453;28;20054;-61
2022/05/02 15:41:40;;;;;;;5.45;2.38;;;;;;;;;;4952389;28;20051;-61
2022/05/02 15:44:08;;;;;;;4.75;2.00;;;;;;;;;;4980694;28;20201;-60